Terminal Aerodrome Forecast
Issued by NWS

Home | Current Version | Previous Version | Text Only | Print | Product List | Glossary On
Versions: 1 2 3 4 5 6 7 8 9 10 11 12 13 14 15 16 17 18 19 20 21 22 23 24 25 26 27 28
000
FTUS41 KPBZ 301800 AAA
TAFFKL
TAF AMD
KFKL 301809Z 3018/3118 30005KT P6SM BKN025
     FM302100 28005KT P6SM BKN040
     FM310800 22005KT P6SM OVC030
     FM311600 20006KT 4SM -SHRA OVC025
      AMD LTD TO CLD VIS AND WIND=

USA.gov is the U.S. government's official web portal to all federal, state and local government web resources and services.